PWSweather.com
Personal Weather Stations
Station Observations
BAYPARK
Bay Park, Ny, East Rockaway, NY 11518

Bay Park, NyEast Rockaway, NY 11518

Lat: 40.6310098, Lon: -73.6727287

Elevation: 11

Station Type: AcuRite Pro

https://www.awekas.at/en/instrument.php?id=14894

Latest ConditionsUpdated 8:25:00 AM EST Thursday, Nov 14, 2019
Currently Today's Max Today's Min Today's Average
Temperature 30.7°F-0.7°C 30.7°F-0.7°C 22.2°F-5.4°C 24.7°F-4.1°C
Dew Point 18.3°F-7.6°C 18.3°F-7.6°C 14.4°F-9.8°C 15.4°F-9.2°C
Winds 0.3 mph NNE0.5 kmh NNE 0.9 mph -1.4 kmh - - 0.1 mph 0.2 kmh
Wind Gusts 1.7 mph2.7 kmh 2.7 mph4.3 kmh - -
Humidity 60% 79% 60% 67%
Pressure 30.50 in1032.8 mb 30.50 in1032.8 mb 30.46 in1031.5 mb -
Hour Temp Dew Point Humidity Winds Wind Gusts Pressure Precip Precip Rate Daily Precip Total
08:25 AM 30.7°F-0.7°C 18.3°F-7.6°C 60% 0.3 mph NNE0.5 kmh NNE 1.7 mph2.7 kmh 30.50 in1032.8 mb 0.00 in0.0 mm 0.00 in0.0 mm 0.00 in0.0 mm
08:20 AM 30.3°F-0.9°C 18.2°F-7.7°C 60% 0.4 mph N0.6 kmh N 2.2 mph3.5 kmh 30.50 in1032.8 mb 0.00 in0.0 mm 0.00 in0.0 mm 0.00 in0.0 mm
08:15 AM 29.8°F-1.2°C 18.0°F-7.8°C 61% 0.1 mph NE0.2 kmh NE 1.1 mph1.8 kmh 30.50 in1032.8 mb 0.00 in0.0 mm 0.00 in0.0 mm 0.00 in0.0 mm
08:10 AM 29.4°F-1.4°C 17.9°F-7.8°C 62% 0.2 mph NW0.3 kmh NW 1.7 mph2.7 kmh 30.49 in1032.5 mb 0.00 in0.0 mm 0.00 in0.0 mm 0.00 in0.0 mm
08:05 AM 29.2°F-1.6°C 17.9°F-7.8°C 62% 0.3 mph N0.5 kmh N 1.7 mph2.7 kmh 30.49 in1032.5 mb 0.00 in0.0 mm 0.00 in0.0 mm 0.00 in0.0 mm
08:00 AM 28.9°F-1.7°C 17.9°F-7.8°C 63% 0.1 mph N0.2 kmh N 1.1 mph1.8 kmh 30.49 in1032.5 mb 0.00 in0.0 mm 0.00 in0.0 mm 0.00 in0.0 mm
07:55 AM 28.7°F-1.8°C 17.7°F-7.9°C 63% 0.3 mph 0.5 kmh 1.7 mph2.7 kmh 30.49 in1032.5 mb 0.00 in0.0 mm 0.00 in0.0 mm 0.00 in0.0 mm
07:50 AM 28.6°F-1.9°C 17.9°F-7.8°C 64% 0.8 mph WNW1.3 kmh WNW 2.2 mph3.5 kmh 30.49 in1032.5 mb 0.00 in0.0 mm 0.00 in0.0 mm 0.00 in0.0 mm
07:45 AM 28.1°F-2.2°C 17.8°F-7.9°C 65% 0.2 mph WNW0.3 kmh WNW 1.7 mph2.7 kmh 30.49 in1032.5 mb 0.00 in0.0 mm 0.00 in0.0 mm 0.00 in0.0 mm
07:40 AM 27.2°F-2.7°C 17.5°F-8.1°C 66% 0.1 mph N0.2 kmh N 1.1 mph1.8 kmh 30.49 in1032.5 mb 0.00 in0.0 mm 0.00 in0.0 mm 0.00 in0.0 mm
07:35 AM 26.1°F-3.3°C 17.0°F-8.3°C 68% 0.1 mph W0.2 kmh W 1.1 mph1.8 kmh 30.48 in1032.2 mb 0.00 in0.0 mm 0.00 in0.0 mm 0.00 in0.0 mm
07:30 AM 25.5°F-3.6°C 16.5°F-8.6°C 68% Calm Calm -- 30.48 in1032.2 mb 0.00 in0.0 mm 0.00 in0.0 mm 0.00 in0.0 mm
07:25 AM 25.2°F-3.8°C 16.1°F-8.8°C 68% Calm Calm -- 30.48 in1032.2 mb 0.00 in0.0 mm 0.00 in0.0 mm 0.00 in0.0 mm
07:20 AM 24.7°F-4.1°C 15.9°F-8.9°C 69% Calm Calm -- 30.48 in1032.2 mb 0.00 in0.0 mm 0.00 in0.0 mm 0.00 in0.0 mm
07:15 AM 24.4°F-4.2°C 15.7°F-9.1°C 69% Calm Calm -- 30.48 in1032.2 mb 0.00 in0.0 mm 0.00 in0.0 mm 0.00 in0.0 mm
07:10 AM 24.3°F-4.3°C 15.6°F-9.1°C 69% Calm Calm -- 30.47 in1031.8 mb 0.00 in0.0 mm 0.00 in0.0 mm 0.00 in0.0 mm
07:05 AM 24.1°F-4.4°C 15.4°F-9.2°C 69% Calm Calm -- 30.47 in1031.8 mb 0.00 in0.0 mm 0.00 in0.0 mm 0.00 in0.0 mm
07:00 AM 23.7°F-4.6°C 15.3°F-9.3°C 70% Calm Calm -- 30.47 in1031.8 mb 0.00 in0.0 mm 0.00 in0.0 mm 0.00 in0.0 mm
06:55 AM 23.3°F-4.8°C 15.0°F-9.4°C 70% 0.1 mph ESE0.2 kmh ESE 1.1 mph1.8 kmh 30.47 in1031.8 mb 0.00 in0.0 mm 0.00 in0.0 mm 0.00 in0.0 mm
06:50 AM 23.3°F-4.8°C 14.8°F-9.6°C 70% Calm Calm -- 30.47 in1031.8 mb 0.00 in0.0 mm 0.00 in0.0 mm 0.00 in0.0 mm
06:45 AM 23.4°F-4.8°C 14.8°F-9.6°C 69% Calm Calm -- 30.47 in1031.8 mb 0.00 in0.0 mm 0.00 in0.0 mm 0.00 in0.0 mm
06:40 AM 23.4°F-4.8°C 14.8°F-9.6°C 69% Calm Calm -- 30.47 in1031.8 mb 0.00 in0.0 mm 0.00 in0.0 mm 0.00 in0.0 mm
06:35 AM 23.5°F-4.7°C 14.8°F-9.6°C 69% Calm Calm -- 30.47 in1031.8 mb 0.00 in0.0 mm 0.00 in0.0 mm 0.00 in0.0 mm
06:30 AM 23.6°F-4.7°C 14.6°F-9.7°C 68% Calm Calm -- 30.47 in1031.8 mb 0.00 in0.0 mm 0.00 in0.0 mm 0.00 in0.0 mm
06:25 AM 24.0°F-4.4°C 14.9°F-9.5°C 68% Calm Calm -- 30.47 in1031.8 mb 0.00 in0.0 mm 0.00 in0.0 mm 0.00 in0.0 mm
06:20 AM 23.7°F-4.6°C 14.7°F-9.6°C 68% Calm Calm -- 30.47 in1031.8 mb 0.00 in0.0 mm 0.00 in0.0 mm 0.00 in0.0 mm
06:15 AM 23.8°F-4.6°C 14.8°F-9.6°C 68% Calm Calm -- 30.47 in1031.8 mb 0.00 in0.0 mm 0.00 in0.0 mm 0.00 in0.0 mm
06:10 AM 24.0°F-4.4°C 14.7°F-9.6°C 67% Calm Calm -- 30.46 in1031.5 mb 0.00 in0.0 mm 0.00 in0.0 mm 0.00 in0.0 mm
06:05 AM 24.2°F-4.3°C 14.5°F-9.7°C 66% Calm Calm -- 30.46 in1031.5 mb 0.00 in0.0 mm 0.00 in0.0 mm 0.00 in0.0 mm
06:00 AM 24.4°F-4.2°C 14.7°F-9.6°C 66% Calm Calm -- 30.46 in1031.5 mb 0.00 in0.0 mm 0.00 in0.0 mm 0.00 in0.0 mm
05:55 AM 24.4°F-4.2°C 14.7°F-9.6°C 66% Calm Calm -- 30.47 in1031.8 mb 0.00 in0.0 mm 0.00 in0.0 mm 0.00 in0.0 mm
05:50 AM 24.6°F-4.1°C 14.9°F-9.5°C 66% Calm Calm -- 30.46 in1031.5 mb 0.00 in0.0 mm 0.00 in0.0 mm 0.00 in0.0 mm
05:45 AM 24.8°F-4.0°C 14.8°F-9.6°C 65% Calm Calm -- 30.46 in1031.5 mb 0.00 in0.0 mm 0.00 in0.0 mm 0.00 in0.0 mm
05:40 AM 24.9°F-3.9°C 14.8°F-9.6°C 65% Calm Calm -- 30.46 in1031.5 mb 0.00 in0.0 mm 0.00 in0.0 mm 0.00 in0.0 mm
05:35 AM 25.0°F-3.9°C 14.9°F-9.5°C 65% Calm Calm -- 30.46 in1031.5 mb 0.00 in0.0 mm 0.00 in0.0 mm 0.00 in0.0 mm
05:30 AM 25.1°F-3.8°C 14.8°F-9.6°C 64% 0.2 mph SE0.3 kmh SE 2.2 mph3.5 kmh 30.46 in1031.5 mb 0.00 in0.0 mm 0.00 in0.0 mm 0.00 in0.0 mm
05:25 AM 25.4°F-3.7°C 15.0°F-9.4°C 64% Calm Calm -- 30.46 in1031.5 mb 0.00 in0.0 mm 0.00 in0.0 mm 0.00 in0.0 mm
05:20 AM 25.6°F-3.6°C 15.1°F-9.4°C 64% 0.1 mph W0.2 kmh W 1.1 mph1.8 kmh 30.46 in1031.5 mb 0.00 in0.0 mm 0.00 in0.0 mm 0.00 in0.0 mm
05:15 AM 25.6°F-3.6°C 15.1°F-9.4°C 64% Calm Calm -- 30.46 in1031.5 mb 0.00 in0.0 mm 0.00 in0.0 mm 0.00 in0.0 mm
05:10 AM 25.7°F-3.5°C 15.2°F-9.3°C 64% 0.1 mph SSE0.2 kmh SSE 1.1 mph1.8 kmh 30.46 in1031.5 mb 0.00 in0.0 mm 0.00 in0.0 mm 0.00 in0.0 mm
05:05 AM 25.6°F-3.6°C 15.1°F-9.4°C 64% 0.2 mph ESE0.3 kmh ESE 1.7 mph2.7 kmh 30.46 in1031.5 mb 0.00 in0.0 mm 0.00 in0.0 mm 0.00 in0.0 mm
05:00 AM 25.6°F-3.6°C 15.2°F-9.3°C 64% 0.3 mph ENE0.5 kmh ENE 1.7 mph2.7 kmh 30.46 in1031.5 mb 0.00 in0.0 mm 0.00 in0.0 mm 0.00 in0.0 mm
04:55 AM 25.4°F-3.7°C 14.9°F-9.5°C 64% 0.1 mph N0.2 kmh N 1.7 mph2.7 kmh 30.46 in1031.5 mb 0.00 in0.0 mm 0.00 in0.0 mm 0.00 in0.0 mm
04:50 AM 25.3°F-3.7°C 14.9°F-9.5°C 64% 0.2 mph NE0.3 kmh NE 2.2 mph3.5 kmh 30.46 in1031.5 mb 0.00 in0.0 mm 0.00 in0.0 mm 0.00 in0.0 mm
04:45 AM 25.5°F-3.6°C 15.0°F-9.4°C 64% 0.2 mph NE0.3 kmh NE 1.1 mph1.8 kmh 30.47 in1031.8 mb 0.00 in0.0 mm 0.00 in0.0 mm 0.00 in0.0 mm
04:40 AM 25.5°F-3.6°C 15.0°F-9.4°C 64% 0.3 mph ESE0.5 kmh ESE 1.7 mph2.7 kmh 30.47 in1031.8 mb 0.00 in0.0 mm 0.00 in0.0 mm 0.00 in0.0 mm
04:35 AM 25.2°F-3.8°C 14.8°F-9.6°C 64% 0.3 mph ENE0.5 kmh ENE 1.7 mph2.7 kmh 30.48 in1032.2 mb 0.00 in0.0 mm 0.00 in0.0 mm 0.00 in0.0 mm
04:30 AM 25.3°F-3.7°C 14.8°F-9.6°C 64% 0.4 mph N0.6 kmh N 1.7 mph2.7 kmh 30.48 in1032.2 mb 0.00 in0.0 mm 0.00 in0.0 mm 0.00 in0.0 mm
04:25 AM 25.3°F-3.7°C 14.9°F-9.5°C 64% Calm Calm -- 30.47 in1031.8 mb 0.00 in0.0 mm 0.00 in0.0 mm 0.00 in0.0 mm
04:20 AM 25.2°F-3.8°C 14.8°F-9.6°C 64% Calm Calm -- 30.47 in1031.8 mb 0.00 in0.0 mm 0.00 in0.0 mm 0.00 in0.0 mm
04:15 AM 25.2°F-3.8°C 14.8°F-9.6°C 64% 0.2 mph ESE0.3 kmh ESE 1.7 mph2.7 kmh 30.47 in1031.8 mb 0.00 in0.0 mm 0.00 in0.0 mm 0.00 in0.0 mm
04:10 AM 25.2°F-3.8°C 14.8°F-9.6°C 64% 0.3 mph SSE0.5 kmh SSE 1.7 mph2.7 kmh 30.47 in1031.8 mb 0.00 in0.0 mm 0.00 in0.0 mm 0.00 in0.0 mm
04:05 AM 25.2°F-3.8°C 14.8°F-9.6°C 64% 0.1 mph E0.2 kmh E 1.1 mph1.8 kmh 30.47 in1031.8 mb 0.00 in0.0 mm 0.00 in0.0 mm 0.00 in0.0 mm
04:00 AM 25.2°F-3.8°C 14.7°F-9.6°C 64% 0.1 mph N0.2 kmh N 1.1 mph1.8 kmh 30.47 in1031.8 mb 0.00 in0.0 mm 0.00 in0.0 mm 0.00 in0.0 mm
03:55 AM 25.0°F-3.9°C 14.6°F-9.7°C 64% 0.1 mph ESE0.2 kmh ESE 1.1 mph1.8 kmh 30.47 in1031.8 mb 0.00 in0.0 mm 0.00 in0.0 mm 0.00 in0.0 mm
03:50 AM 25.2°F-3.8°C 14.8°F-9.6°C 64% Calm Calm -- 30.48 in1032.2 mb 0.00 in0.0 mm 0.00 in0.0 mm 0.00 in0.0 mm
03:45 AM 25.2°F-3.8°C 14.8°F-9.6°C 64% 0.1 mph N0.2 kmh N 1.1 mph1.8 kmh 30.48 in1032.2 mb 0.00 in0.0 mm 0.00 in0.0 mm 0.00 in0.0 mm
03:40 AM 25.3°F-3.7°C 14.8°F-9.6°C 64% Calm Calm -- 30.48 in1032.2 mb 0.00 in0.0 mm 0.00 in0.0 mm 0.00 in0.0 mm
03:35 AM 25.3°F-3.7°C 14.8°F-9.6°C 64% 0.1 mph ESE0.2 kmh ESE 1.1 mph1.8 kmh 30.48 in1032.2 mb 0.00 in0.0 mm 0.00 in0.0 mm 0.00 in0.0 mm
03:30 AM 25.3°F-3.7°C 14.9°F-9.5°C 64% Calm Calm -- 30.48 in1032.2 mb 0.00 in0.0 mm 0.00 in0.0 mm 0.00 in0.0 mm
03:25 AM 25.4°F-3.7°C 15.0°F-9.4°C 64% Calm Calm -- 30.48 in1032.2 mb 0.00 in0.0 mm 0.00 in0.0 mm 0.00 in0.0 mm
03:20 AM 25.3°F-3.7°C 14.8°F-9.6°C 64% 0.1 mph N0.2 kmh N 1.1 mph1.8 kmh 30.47 in1031.8 mb 0.00 in0.0 mm 0.00 in0.0 mm 0.00 in0.0 mm
03:15 AM 25.3°F-3.7°C 14.9°F-9.5°C 64% 0.2 mph N0.3 kmh N 1.1 mph1.8 kmh 30.47 in1031.8 mb 0.00 in0.0 mm 0.00 in0.0 mm 0.00 in0.0 mm
03:10 AM 25.3°F-3.7°C 15.0°F-9.4°C 64% 0.1 mph SE0.2 kmh SE 1.1 mph1.8 kmh 30.48 in1032.2 mb 0.00 in0.0 mm 0.00 in0.0 mm 0.00 in0.0 mm
03:05 AM 25.2°F-3.8°C 15.1°F-9.4°C 65% 0.5 mph ESE0.8 kmh ESE 2.2 mph3.5 kmh 30.48 in1032.2 mb 0.00 in0.0 mm 0.00 in0.0 mm 0.00 in0.0 mm
03:00 AM 25.2°F-3.8°C 15.1°F-9.4°C 65% 0.1 mph ESE0.2 kmh ESE 1.1 mph1.8 kmh 30.48 in1032.2 mb 0.00 in0.0 mm 0.00 in0.0 mm 0.00 in0.0 mm
02:55 AM 24.9°F-3.9°C 14.8°F-9.6°C 65% 0.9 mph SE1.4 kmh SE 2.7 mph4.3 kmh 30.48 in1032.2 mb 0.00 in0.0 mm 0.00 in0.0 mm 0.00 in0.0 mm
02:50 AM 24.9°F-3.9°C 14.9°F-9.5°C 65% 0.1 mph S0.2 kmh S 1.1 mph1.8 kmh 30.48 in1032.2 mb 0.00 in0.0 mm 0.00 in0.0 mm 0.00 in0.0 mm
02:45 AM 24.8°F-4.0°C 14.7°F-9.6°C 65% 0.3 mph NNE0.5 kmh NNE 1.7 mph2.7 kmh 30.48 in1032.2 mb 0.00 in0.0 mm 0.00 in0.0 mm 0.00 in0.0 mm
02:40 AM 24.6°F-4.1°C 14.5°F-9.7°C 65% 0.4 mph E0.6 kmh E 1.7 mph2.7 kmh 30.48 in1032.2 mb 0.00 in0.0 mm 0.00 in0.0 mm 0.00 in0.0 mm
02:35 AM 24.6°F-4.1°C 14.8°F-9.6°C 66% 0.1 mph N0.2 kmh N 1.1 mph1.8 kmh 30.49 in1032.5 mb 0.00 in0.0 mm 0.00 in0.0 mm 0.00 in0.0 mm
02:30 AM 24.3°F-4.3°C 14.6°F-9.7°C 66% Calm Calm -- 30.49 in1032.5 mb 0.00 in0.0 mm 0.00 in0.0 mm 0.00 in0.0 mm
02:25 AM 24.6°F-4.1°C 14.9°F-9.5°C 66% Calm Calm -- 30.49 in1032.5 mb 0.00 in0.0 mm 0.00 in0.0 mm 0.00 in0.0 mm
02:20 AM 24.3°F-4.3°C 14.6°F-9.7°C 66% Calm Calm -- 30.49 in1032.5 mb 0.00 in0.0 mm 0.00 in0.0 mm 0.00 in0.0 mm
02:15 AM 24.3°F-4.3°C 14.9°F-9.5°C 67% Calm Calm -- 30.49 in1032.5 mb 0.00 in0.0 mm 0.00 in0.0 mm 0.00 in0.0 mm
02:10 AM 23.9°F-4.5°C 14.6°F-9.7°C 67% Calm Calm -- 30.49 in1032.5 mb 0.00 in0.0 mm 0.00 in0.0 mm 0.00 in0.0 mm
02:05 AM 23.7°F-4.6°C 14.7°F-9.6°C 68% Calm Calm -- 30.49 in1032.5 mb 0.00 in0.0 mm 0.00 in0.0 mm 0.00 in0.0 mm
02:00 AM 23.4°F-4.8°C 14.6°F-9.7°C 69% Calm Calm -- 30.49 in1032.5 mb 0.00 in0.0 mm 0.00 in0.0 mm 0.00 in0.0 mm
01:55 AM 23.0°F-5.0°C 14.7°F-9.6°C 70% Calm Calm -- 30.49 in1032.5 mb 0.00 in0.0 mm 0.00 in0.0 mm 0.00 in0.0 mm
01:50 AM 23.0°F-5.0°C 15.0°F-9.4°C 71% Calm Calm -- 30.49 in1032.5 mb 0.00 in0.0 mm 0.00 in0.0 mm 0.00 in0.0 mm
01:45 AM 22.8°F-5.1°C 14.6°F-9.7°C 70% Calm Calm -- 30.49 in1032.5 mb 0.00 in0.0 mm 0.00 in0.0 mm 0.00 in0.0 mm
01:40 AM 22.8°F-5.1°C 14.5°F-9.7°C 70% Calm Calm -- 30.49 in1032.5 mb 0.00 in0.0 mm 0.00 in0.0 mm 0.00 in0.0 mm
01:35 AM 22.7°F-5.2°C 14.4°F-9.8°C 70% Calm Calm -- 30.49 in1032.5 mb 0.00 in0.0 mm 0.00 in0.0 mm 0.00 in0.0 mm
01:30 AM 22.7°F-5.2°C 14.5°F-9.7°C 70% Calm Calm -- 30.49 in1032.5 mb 0.00 in0.0 mm 0.00 in0.0 mm 0.00 in0.0 mm
01:25 AM 22.8°F-5.1°C 14.5°F-9.7°C 70% Calm Calm -- 30.49 in1032.5 mb 0.00 in0.0 mm 0.00 in0.0 mm 0.00 in0.0 mm
01:20 AM 23.0°F-5.0°C 14.7°F-9.6°C 70% Calm Calm -- 30.49 in1032.5 mb 0.00 in0.0 mm 0.00 in0.0 mm 0.00 in0.0 mm
01:15 AM 22.8°F-5.1°C 14.9°F-9.5°C 71% Calm Calm -- 30.49 in1032.5 mb 0.00 in0.0 mm 0.00 in0.0 mm 0.00 in0.0 mm
01:10 AM 22.6°F-5.2°C 14.9°F-9.5°C 72% Calm Calm -- 30.50 in1032.8 mb 0.00 in0.0 mm 0.00 in0.0 mm 0.00 in0.0 mm
01:05 AM 22.8°F-5.1°C 14.8°F-9.6°C 71% Calm Calm -- 30.50 in1032.8 mb 0.00 in0.0 mm 0.00 in0.0 mm 0.00 in0.0 mm
01:00 AM 22.8°F-5.1°C 15.0°F-9.4°C 72% Calm Calm -- 30.49 in1032.5 mb 0.00 in0.0 mm 0.00 in0.0 mm 0.00 in0.0 mm
12:55 AM 22.6°F-5.2°C 15.5°F-9.2°C 74% Calm Calm -- 30.49 in1032.5 mb 0.00 in0.0 mm 0.00 in0.0 mm 0.00 in0.0 mm
12:50 AM 22.6°F-5.2°C 16.1°F-8.8°C 76% Calm Calm -- 30.49 in1032.5 mb 0.00 in0.0 mm 0.00 in0.0 mm 0.00 in0.0 mm
12:45 AM 22.3°F-5.4°C 16.3°F-8.7°C 77% Calm Calm -- 30.49 in1032.5 mb 0.00 in0.0 mm 0.00 in0.0 mm 0.00 in0.0 mm
12:40 AM 22.2°F-5.4°C 16.7°F-8.5°C 79% Calm Calm -- 30.49 in1032.5 mb 0.00 in0.0 mm 0.00 in0.0 mm 0.00 in0.0 mm
12:35 AM 22.4°F-5.3°C 16.6°F-8.6°C 78% Calm Calm -- 30.49 in1032.5 mb 0.00 in0.0 mm 0.00 in0.0 mm 0.00 in0.0 mm
12:30 AM 22.4°F-5.3°C 16.3°F-8.7°C 77% Calm Calm -- 30.49 in1032.5 mb 0.00 in0.0 mm 0.00 in0.0 mm 0.00 in0.0 mm
12:25 AM 22.3°F-5.4°C 15.8°F-9.0°C 76% Calm Calm -- 30.49 in1032.5 mb 0.00 in0.0 mm 0.00 in0.0 mm 0.00 in0.0 mm
12:20 AM 22.3°F-5.4°C 15.6°F-9.1°C 75% Calm Calm -- 30.49 in1032.5 mb 0.00 in0.0 mm 0.00 in0.0 mm 0.00 in0.0 mm
12:15 AM 22.3°F-5.4°C 15.6°F-9.1°C 75% Calm Calm -- 30.49 in1032.5 mb 0.00 in0.0 mm 0.00 in0.0 mm 0.00 in0.0 mm
12:10 AM 22.5°F-5.3°C 15.9°F-8.9°C 75% Calm Calm -- 30.50 in1032.8 mb 0.00 in0.0 mm 0.00 in0.0 mm 0.00 in0.0 mm
12:05 AM 22.5°F-5.3°C 16.1°F-8.8°C 76% Calm Calm -- 30.50 in1032.8 mb 0.00 in0.0 mm 0.00 in0.0 mm 0.00 in0.0 mm
12:00 AM 22.5°F-5.3°C 16.1°F-8.8°C 76% Calm Calm -- 30.49 in1032.5 mb 0.00 in0.0 mm 0.00 in0.0 mm 0.00 in0.0 mm